Terminal Aerodrome Forecast
Issued by NWS Kansas City/Pleasant Hill, MO

Home | Current Version | Previous Version | Text Only | Print | Product List | Glossary On
Versions: 1 2 3 4 5 6 7 8 9 10 11 12 13 14 15 16 17 18 19 20 21 22 23
000
FTUS43 KEAX 280247 AAA
TAFMCI
TAF AMD
KMCI 280247Z 2803/2824 VRB06KT P6SM VCTS BKN035CB
      TEMPO 2803/2805 27012G18KT -TSRA BKN030CB
     FM280600 17007KT P6SM -TSRA BKN035CB
     FM280900 17009KT P6SM VCSH BKN030
     FM281200 17007KT P6SM BKN025=

USA.gov is the U.S. government's official web portal to all federal, state and local government web resources and services.